Duluth, MN

1:34 PM CDT on March 28, 2015 (GMT -0500)
Chester Park WX | | Change Station
CLOSE
Current Station
Personal Weather Station
Location: Duluth, MN
Elevation: 1040 ft
Nearby Weather Stations

Elev 1040 ft 46.81 °N, 92.08 °W | Updated 4 minutes ago

Clear
Clear
40.7 °F
Feels Like 41 °F
N
2.0
Wind Variable Wind from South
Gusts 2.0 mph

Today
High -- | Low -- °F
--% Chance of Precip.
Yesterday
High -- | Low -- °F
Precip. -- in
6:55 AM 7:31 PM
Waxing Gibbous, 64% visible
Pressure 30.19 in
Visibility 10.0 miles
Clouds Clear
Windchill 41 °F
Dew Point 16 °F
Humidity 36%
Rainfall 0.00 in
Snow Depth Not available.
UV 7 out of 12
Pollen .30 out of 12
Air Quality Not available.
Flu Activity Not available.
METAR KDLH 281755Z 17014KT 10SM CLR 04/M13 A3013 RMK AO2 SLP224 T00391133 10039 21106 58020

More Conditions Fewer Conditions

Pressure 30.19 in
Visibility 10.0 miles
Clouds Clear
Windchill 41 °F
Dew Point 16 °F
Humidity 36%
Rainfall 0.00 in
Snow Depth Not available.
UV 7 out of 12
Pollen .30 out of 12
Air Quality Not available.
Flu Activity Not available.
METAR KDLH 281755Z 17014KT 10SM CLR 04/M13 A3013 RMK AO2 SLP224 T00391133 10039 21106 58020

More Conditions Fewer Conditions

10-Day Weather Forecast

Almanac

Astronomy

Mar. 28, 2015 Rise Set
Actual Time
Civil Twilight
Nautical Twilight
Astronomical Twilight
Moon
Length of Visible Light
Length of Day
Tomorrow will be .
, % of the Moon is Illuminated

Today's Extremes

State Highs State Lows

Community

WunderPhotos

Upload Photos

1,809,055 photos uploaded!

WunderBlogs® & News

Nearby

Air Quality

  Air Quality AQ Index Pollutant
Not available.

Snow Depth

Station Depth Elevation

Earthquake Activity

City Distance Mag. Time & Date
Minimum magnitude displayed is 2.5.

Coastal Water Temperatures

Place Temperature

Stations

Nearby Weather Stations

Station Location Temp. Windchill Dew Point Humidity Wind Precip. Elev Updated Type